EGAC

George Best Belfast City Airport

Belfast, United Kingdom
METAR EGAC 180150Z AUTO 23014KT 9999 BKN020/// BKN027/// 16/14 Q1013
Observed Flight Rules
Aug-18 @ 01:50 UTC (37 minutes ago) Marginal Visual Flight Rules
Wind Visibility Clouds
230° at 14 knots 10,000+ meters
  • Broken at 2,000' AGL
  • Broken at 2,700' AGL
Temperatures Readings
Current 16°C / 61°F
Dewpoint 14°C / 57°F
Humidity 88%
Altimeter 29.91" Hg
Pressure 1013 hPa
Elevation 5
METAR EGAC 180150Z AUTO 23014KT 9999 BKN020/// BKN027/// 16/14 Q1013
Observed Flight Rules
Aug-18 @ 01:50 UTC
(37 minutes ago)
MVFR
Wind Visibility
230° at 14 knots 10,000+ meters
Clouds
  • Broken at 2,000' AGL
  • Broken at 2,700' AGL
Temperature Dewpoint
16°C / 61°F 14°C / 57°F
Humidity Altimeter Pressure
88% 29.91" Hg 1013 hPa